createdAt,value
2023-04-30T00:01:01.277Z,16.18
2023-04-30T00:03:28.222Z,16.19
2023-04-30T00:05:55.052Z,16.17
2023-04-30T00:08:22.071Z,16.19
2023-04-30T00:10:48.835Z,15.92
2023-04-30T00:13:15.687Z,15.76
2023-04-30T00:15:42.687Z,16.03
2023-04-30T00:18:09.644Z,15.93
2023-04-30T00:20:36.519Z,15.88
2023-04-30T00:23:03.483Z,15.68
2023-04-30T00:25:30.142Z,15.91
2023-04-30T00:27:57.037Z,15.69
2023-04-30T00:30:23.846Z,15.77
2023-04-30T00:32:50.813Z,15.77
2023-04-30T00:35:17.803Z,15.80
2023-04-30T00:37:46.591Z,15.85
2023-04-30T00:40:13.416Z,15.43
2023-04-30T00:42:40.203Z,15.67
2023-04-30T00:45:07.914Z,15.49
2023-04-30T00:47:35.521Z,15.49
2023-04-30T00:50:02.409Z,15.59
2023-04-30T00:52:29.176Z,15.33
2023-04-30T00:54:56.805Z,15.56
2023-04-30T00:57:23.635Z,15.55
2023-04-30T00:59:50.906Z,15.44
2023-04-30T01:02:18.681Z,15.33
2023-04-30T01:04:45.662Z,15.57
2023-04-30T01:07:12.574Z,15.62
2023-04-30T01:09:39.271Z,15.45
2023-04-30T01:12:09.966Z,15.48
2023-04-30T01:15:02.247Z,15.26
2023-04-30T01:17:39.694Z,15.35
2023-04-30T01:20:08.120Z,15.24
2023-04-30T01:23:11.022Z,15.11
2023-04-30T01:25:40.713Z,15.04
2023-04-30T01:28:17.093Z,14.90
2023-04-30T01:30:47.599Z,14.81
2023-04-30T01:33:14.324Z,14.84
2023-04-30T01:35:41.194Z,14.81
2023-04-30T01:38:21.112Z,14.85
2023-04-30T01:40:54.862Z,14.61
2023-04-30T01:43:46.323Z,14.89
2023-04-30T01:46:28.395Z,14.86
2023-04-30T01:49:07.784Z,15.06
2023-04-30T01:51:47.060Z,14.94
2023-04-30T01:54:33.181Z,15.01
2023-04-30T01:57:13.769Z,15.04
2023-04-30T01:59:41.261Z,14.65
2023-04-30T02:02:08.210Z,14.21
2023-04-30T02:04:34.956Z,13.97
2023-04-30T02:07:03.701Z,13.94
2023-04-30T02:09:31.465Z,14.31
2023-04-30T02:11:58.210Z,14.16
2023-04-30T02:14:26.023Z,14.56
2023-04-30T02:16:53.307Z,14.64
2023-04-30T02:19:20.098Z,14.59
2023-04-30T02:21:46.913Z,14.78
2023-04-30T02:24:13.646Z,14.89
2023-04-30T02:26:40.585Z,14.76
2023-04-30T02:29:07.430Z,14.79
2023-04-30T02:31:34.260Z,14.71
2023-04-30T02:34:01.052Z,14.72
2023-04-30T02:36:27.760Z,14.71
2023-04-30T02:38:54.397Z,14.58
2023-04-30T02:41:21.805Z,14.52
2023-04-30T02:43:48.696Z,14.49
2023-04-30T02:46:15.563Z,14.57
2023-04-30T02:48:42.543Z,14.59
2023-04-30T02:51:09.872Z,14.34
2023-04-30T02:53:36.613Z,14.48
2023-04-30T02:56:03.475Z,14.29
2023-04-30T02:58:30.292Z,14.01
2023-04-30T03:00:57.459Z,14.14
2023-04-30T03:03:24.186Z,13.91
2023-04-30T03:05:51.291Z,13.96
2023-04-30T03:08:17.969Z,14.29
2023-04-30T03:10:44.789Z,14.30
2023-04-30T03:13:11.474Z,14.37
2023-04-30T03:15:38.537Z,14.24
2023-04-30T03:18:06.781Z,13.92
2023-04-30T03:20:33.455Z,13.92
2023-04-30T03:23:00.233Z,14.12
2023-04-30T03:25:26.963Z,14.25
2023-04-30T03:27:53.964Z,14.23
2023-04-30T03:30:21.479Z,13.94
2023-04-30T03:32:48.462Z,13.98
2023-04-30T03:35:16.456Z,13.84
2023-04-30T03:37:43.272Z,13.38
2023-04-30T03:40:11.628Z,13.80
2023-04-30T03:42:38.446Z,13.95
2023-04-30T03:45:05.612Z,13.88
2023-04-30T03:47:33.820Z,13.93
2023-04-30T03:50:00.610Z,13.71
2023-04-30T03:52:27.558Z,13.95
2023-04-30T03:54:54.296Z,13.69
2023-04-30T03:57:21.732Z,13.88
2023-04-30T03:59:49.003Z,13.33
2023-04-30T04:02:16.380Z,13.39
2023-04-30T04:04:43.290Z,13.52
2023-04-30T04:07:11.583Z,13.80
2023-04-30T04:09:39.176Z,13.30
2023-04-30T04:12:06.190Z,13.19
2023-04-30T04:14:33.083Z,13.42
2023-04-30T04:17:00.683Z,13.56
2023-04-30T04:19:27.987Z,13.57
2023-04-30T04:21:57.611Z,13.61
2023-04-30T04:24:25.698Z,13.74
2023-04-30T04:26:53.493Z,13.86
2023-04-30T04:29:20.459Z,13.94
2023-04-30T04:31:49.297Z,13.90
2023-04-30T04:34:16.438Z,13.54
2023-04-30T04:36:43.401Z,13.74
2023-04-30T04:39:10.105Z,13.89
2023-04-30T04:41:37.113Z,13.95
2023-04-30T04:44:04.620Z,13.96
2023-04-30T04:46:32.302Z,13.18
2023-04-30T04:49:00.077Z,13.64
2023-04-30T04:51:27.025Z,13.62
2023-04-30T04:53:54.736Z,13.55
2023-04-30T04:56:21.528Z,13.42
2023-04-30T04:58:48.419Z,13.90
2023-04-30T05:01:15.483Z,14.00
2023-04-30T05:03:42.376Z,13.77
2023-04-30T05:06:09.173Z,14.00
2023-04-30T05:08:36.362Z,14.11
2023-04-30T05:11:03.168Z,13.86
2023-04-30T05:13:30.386Z,14.11
2023-04-30T05:15:57.104Z,14.25
2023-04-30T05:18:23.861Z,14.00
2023-04-30T05:20:50.656Z,14.14
2023-04-30T05:23:17.517Z,14.40
2023-04-30T05:25:44.256Z,14.29
2023-04-30T05:28:11.530Z,14.21
2023-04-30T05:30:38.419Z,14.40
2023-04-30T05:33:05.683Z,14.63
2023-04-30T05:35:36.318Z,14.55
2023-04-30T05:38:03.793Z,14.88
2023-04-30T05:40:31.035Z,14.93
2023-04-30T05:42:57.953Z,14.86
2023-04-30T05:45:25.071Z,14.86
2023-04-30T05:47:52.022Z,15.34
2023-04-30T05:50:18.943Z,16.94
2023-04-30T05:52:46.095Z,18.68
2023-04-30T05:55:12.961Z,20.61
2023-04-30T05:57:39.717Z,21.96
2023-04-30T06:00:09.982Z,22.18
2023-04-30T06:02:40.255Z,23.73
2023-04-30T06:05:08.248Z,23.48
2023-04-30T06:07:35.995Z,23.49
2023-04-30T06:10:03.772Z,23.98
2023-04-30T06:12:31.507Z,25.03
2023-04-30T06:14:58.570Z,25.34
2023-04-30T06:17:25.314Z,22.97
2023-04-30T06:19:52.950Z,22.57
2023-04-30T06:22:19.948Z,24.20
2023-04-30T06:24:46.946Z,24.55
2023-04-30T06:27:13.736Z,25.08
2023-04-30T06:29:40.701Z,24.40
2023-04-30T06:32:08.526Z,25.79
2023-04-30T06:34:35.913Z,26.24
2023-04-30T06:37:02.813Z,26.14
2023-04-30T06:39:29.923Z,25.86
2023-04-30T06:42:12.756Z,24.69
2023-04-30T06:44:40.028Z,24.90
2023-04-30T06:47:07.427Z,25.09
2023-04-30T06:49:34.912Z,24.65
2023-04-30T06:52:02.048Z,23.98
2023-04-30T06:54:29.165Z,24.66
2023-04-30T06:56:55.862Z,25.95
2023-04-30T06:59:22.772Z,26.56
2023-04-30T07:01:49.512Z,25.82
2023-04-30T07:04:16.503Z,26.34
2023-04-30T07:06:43.381Z,25.77
2023-04-30T07:09:11.048Z,25.08
2023-04-30T07:11:37.925Z,23.63
2023-04-30T07:14:04.627Z,23.32
2023-04-30T07:16:38.358Z,21.99
2023-04-30T07:19:05.133Z,20.55
2023-04-30T07:21:32.826Z,21.74
2023-04-30T07:23:59.686Z,21.11
2023-04-30T07:26:26.602Z,21.19
2023-04-30T07:28:54.048Z,22.03
2023-04-30T07:31:21.161Z,22.24
2023-04-30T07:33:49.042Z,22.40
2023-04-30T07:36:15.858Z,22.26
2023-04-30T07:38:43.109Z,21.34
2023-04-30T07:41:11.632Z,22.01
2023-04-30T07:43:38.957Z,21.90
2023-04-30T07:46:05.755Z,21.52
2023-04-30T07:48:32.783Z,21.80
2023-04-30T07:50:59.477Z,21.68
2023-04-30T07:53:26.544Z,21.70
2023-04-30T07:55:53.698Z,21.56
2023-04-30T07:58:20.941Z,21.59
2023-04-30T08:00:47.890Z,21.66
2023-04-30T08:03:14.789Z,19.60
2023-04-30T08:05:41.693Z,19.42
2023-04-30T08:08:09.361Z,20.05
2023-04-30T08:10:37.478Z,19.54
2023-04-30T08:13:05.152Z,20.06
2023-04-30T08:15:34.057Z,19.97
2023-04-30T08:18:00.961Z,20.29
2023-04-30T08:20:27.901Z,20.03
2023-04-30T08:22:54.780Z,20.45
2023-04-30T08:25:21.450Z,20.40
2023-04-30T08:27:49.491Z,19.92
2023-04-30T08:30:17.371Z,21.15
2023-04-30T08:32:44.650Z,20.59
2023-04-30T08:35:11.436Z,20.71
2023-04-30T08:37:39.702Z,21.03
2023-04-30T08:40:09.884Z,19.78
2023-04-30T08:42:37.969Z,20.65
2023-04-30T08:45:05.113Z,20.77
2023-04-30T08:47:32.202Z,20.79
2023-04-30T08:49:59.122Z,21.25
2023-04-30T08:52:27.035Z,21.64
2023-04-30T08:54:54.372Z,19.97
2023-04-30T08:57:21.463Z,20.56
2023-04-30T08:59:48.396Z,20.97
2023-04-30T09:02:33.169Z,20.77
2023-04-30T09:08:01.232Z,21.01
2023-04-30T09:10:32.696Z,20.81
2023-04-30T09:13:01.702Z,21.68
2023-04-30T09:15:29.280Z,21.35
2023-04-30T09:18:08.486Z,21.12
2023-04-30T09:20:35.978Z,20.77
2023-04-30T09:23:10.644Z,19.83
2023-04-30T09:25:41.794Z,20.79
2023-04-30T09:28:13.192Z,20.76
2023-04-30T09:30:44.277Z,20.89
2023-04-30T09:33:12.141Z,20.79
2023-04-30T09:35:40.154Z,21.33
2023-04-30T09:38:06.960Z,21.20
2023-04-30T09:40:41.453Z,20.72
2023-04-30T09:43:09.123Z,20.89
2023-04-30T09:45:53.057Z,21.00
2023-04-30T09:48:23.934Z,21.26
2023-04-30T09:50:51.695Z,20.39
2023-04-30T09:53:19.498Z,21.36
2023-04-30T09:55:48.206Z,21.22
2023-04-30T10:01:18.291Z,20.59
2023-04-30T10:03:46.157Z,20.55
2023-04-30T10:06:15.647Z,21.27
2023-04-30T10:08:44.103Z,21.26
2023-04-30T10:11:16.820Z,21.29
2023-04-30T10:13:47.347Z,21.34
2023-04-30T10:16:44.731Z,21.60
2023-04-30T10:19:24.471Z,20.98
2023-04-30T10:21:51.896Z,20.61
2023-04-30T10:24:22.851Z,20.89
2023-04-30T10:26:50.263Z,20.67
2023-04-30T10:29:18.174Z,21.49
2023-04-30T10:31:50.354Z,20.96
2023-04-30T10:34:29.400Z,21.13
2023-04-30T10:37:28.720Z,21.63
2023-04-30T10:39:55.995Z,21.91
2023-04-30T10:42:23.378Z,20.95
2023-04-30T10:44:50.599Z,20.91
2023-04-30T10:47:19.607Z,21.20
2023-04-30T10:49:49.816Z,21.05
2023-04-30T10:52:26.798Z,20.71
2023-04-30T10:54:53.663Z,21.41
2023-04-30T10:57:22.482Z,21.05
2023-04-30T11:00:08.159Z,21.40
2023-04-30T11:02:47.394Z,21.00
2023-04-30T11:05:18.948Z,20.55
2023-04-30T11:07:56.473Z,20.67
2023-04-30T11:10:25.516Z,20.46
2023-04-30T11:12:54.286Z,20.93
2023-04-30T11:15:25.443Z,20.93
2023-04-30T11:17:58.939Z,20.53
2023-04-30T11:20:26.864Z,20.24
2023-04-30T11:23:21.778Z,20.80
2023-04-30T11:25:57.789Z,20.66
2023-04-30T11:28:26.780Z,21.10
2023-04-30T11:30:58.265Z,21.32
2023-04-30T11:33:26.942Z,20.97
2023-04-30T11:35:55.785Z,21.36
2023-04-30T11:38:27.168Z,21.77
2023-04-30T11:40:57.201Z,22.04
2023-04-30T11:43:26.116Z,21.95
2023-04-30T11:46:12.114Z,21.56
2023-04-30T11:48:40.607Z,20.90
2023-04-30T11:51:20.673Z,21.59
2023-04-30T11:53:49.571Z,21.57
2023-04-30T11:56:24.391Z,21.06
2023-04-30T11:58:57.215Z,21.99
2023-04-30T12:01:27.987Z,21.76
2023-04-30T12:03:56.428Z,20.77
2023-04-30T12:06:28.359Z,21.02
2023-04-30T12:09:01.868Z,20.69
2023-04-30T12:11:30.517Z,21.40
2023-04-30T12:13:58.531Z,20.92
2023-04-30T12:16:26.308Z,21.11
2023-04-30T12:18:53.601Z,21.72
2023-04-30T12:21:22.836Z,21.87
2023-04-30T12:23:49.971Z,21.68
2023-04-30T12:26:17.980Z,21.29
2023-04-30T12:28:47.516Z,21.63
2023-04-30T12:31:14.593Z,21.30
2023-04-30T12:33:41.616Z,21.79
2023-04-30T12:36:11.057Z,21.85
2023-04-30T12:38:37.920Z,21.62
2023-04-30T12:41:05.517Z,22.06
2023-04-30T12:43:33.451Z,21.48
2023-04-30T12:46:01.177Z,21.20
2023-04-30T12:48:29.339Z,21.39
2023-04-30T12:51:05.156Z,21.61
2023-04-30T12:53:32.193Z,21.48
2023-04-30T12:56:15.973Z,21.31
2023-04-30T12:58:51.295Z,21.13
2023-04-30T13:07:40.956Z,20.88
2023-04-30T13:10:08.190Z,21.12
2023-04-30T13:12:34.994Z,21.56
2023-04-30T13:15:03.395Z,21.42
2023-04-30T13:17:30.422Z,21.56
2023-04-30T13:19:57.418Z,21.18
2023-04-30T13:22:29.479Z,20.99
2023-04-30T13:24:56.398Z,21.10
2023-04-30T13:27:24.705Z,21.27
2023-04-30T13:29:51.504Z,21.26
2023-04-30T13:32:20.520Z,20.87
2023-04-30T13:34:47.629Z,21.50
2023-04-30T13:37:14.400Z,21.99
2023-04-30T13:39:41.773Z,21.10
2023-04-30T13:42:08.596Z,21.28
2023-04-30T13:44:36.765Z,21.06
2023-04-30T13:47:03.750Z,21.30
2023-04-30T13:49:30.910Z,20.99
2023-04-30T13:51:57.595Z,21.21
2023-04-30T13:54:24.650Z,22.22
2023-04-30T13:56:51.674Z,21.95
2023-04-30T13:59:19.094Z,21.44
2023-04-30T14:01:46.302Z,21.06
2023-04-30T14:04:13.793Z,21.49
2023-04-30T14:06:40.988Z,21.07
2023-04-30T14:09:08.397Z,21.80
2023-04-30T14:11:35.126Z,22.13
2023-04-30T14:14:02.251Z,22.12
2023-04-30T14:16:29.391Z,22.27
2023-04-30T14:18:56.198Z,21.80
2023-04-30T14:21:23.104Z,21.56
2023-04-30T14:23:50.265Z,21.74
2023-04-30T14:26:18.520Z,22.06
2023-04-30T14:28:45.398Z,21.63
2023-04-30T14:31:12.180Z,21.82
2023-04-30T14:33:39.241Z,21.07
2023-04-30T14:36:07.195Z,21.44
2023-04-30T14:38:34.266Z,21.33
2023-04-30T14:41:01.292Z,21.67
2023-04-30T14:43:28.243Z,21.44
2023-04-30T14:45:55.185Z,21.81
2023-04-30T14:48:22.209Z,21.90
2023-04-30T14:50:50.044Z,21.82
2023-04-30T14:53:16.935Z,22.15
2023-04-30T14:55:44.178Z,21.96
2023-04-30T14:58:11.196Z,21.90
2023-04-30T15:00:38.045Z,22.11
2023-04-30T15:03:05.363Z,22.04
2023-04-30T15:05:32.511Z,21.62
2023-04-30T15:07:59.356Z,21.78
2023-04-30T15:10:26.169Z,22.27
2023-04-30T15:12:53.897Z,22.04
2023-04-30T15:15:22.707Z,22.04
2023-04-30T15:17:49.598Z,21.44
2023-04-30T15:20:16.447Z,22.17
2023-04-30T15:22:45.300Z,22.56
2023-04-30T15:25:15.105Z,22.53
2023-04-30T15:27:42.086Z,22.26
2023-04-30T15:30:09.838Z,22.03
2023-04-30T15:32:37.022Z,22.13
2023-04-30T15:35:03.994Z,21.84
2023-04-30T15:37:30.928Z,22.27
2023-04-30T15:39:57.869Z,22.24
2023-04-30T15:42:24.802Z,22.65
2023-04-30T15:44:52.403Z,22.17
2023-04-30T15:47:20.256Z,22.09
2023-04-30T15:49:48.748Z,22.43
2023-04-30T15:52:15.657Z,21.87
2023-04-30T15:54:42.530Z,21.83
2023-04-30T15:57:09.196Z,21.95
2023-04-30T15:59:39.163Z,22.18
2023-04-30T16:02:08.566Z,21.23
2023-04-30T16:04:35.740Z,21.58
2023-04-30T16:07:04.796Z,22.05
2023-04-30T16:09:32.304Z,21.55
2023-04-30T16:11:59.136Z,22.00
2023-04-30T16:14:25.884Z,22.06
2023-04-30T16:16:52.846Z,21.67
2023-04-30T16:19:47.530Z,22.07
2023-04-30T16:22:17.671Z,21.99
2023-04-30T16:24:44.672Z,21.56
2023-04-30T16:27:11.670Z,21.16
2023-04-30T16:29:39.785Z,21.87
2023-04-30T16:32:06.969Z,21.82
2023-04-30T16:34:34.000Z,21.91
2023-04-30T16:37:00.948Z,22.09
2023-04-30T16:39:27.704Z,22.05
2023-04-30T16:41:54.758Z,22.19
2023-04-30T16:44:22.601Z,21.93
2023-04-30T16:46:49.623Z,22.02
2023-04-30T16:49:17.053Z,21.82
2023-04-30T16:51:44.030Z,22.37
2023-04-30T16:54:10.769Z,22.11
2023-04-30T16:56:37.763Z,22.43
2023-04-30T16:59:04.882Z,21.92
2023-04-30T17:01:32.316Z,21.76
2023-04-30T17:03:59.184Z,21.79
2023-04-30T17:06:26.470Z,21.90
2023-04-30T17:08:54.313Z,22.00
2023-04-30T17:11:22.414Z,21.60
2023-04-30T17:13:49.410Z,21.90
2023-04-30T17:16:16.643Z,22.00
2023-04-30T17:18:43.402Z,21.97
2023-04-30T17:21:10.207Z,21.84
2023-04-30T17:23:37.047Z,22.14
2023-04-30T17:26:04.231Z,21.29
2023-04-30T17:28:32.830Z,21.58
2023-04-30T17:31:03.951Z,21.67
2023-04-30T17:33:30.988Z,21.75
2023-04-30T17:35:58.928Z,21.80
2023-04-30T17:38:26.460Z,21.73
2023-04-30T17:40:54.076Z,21.36
2023-04-30T17:43:20.969Z,20.45
2023-04-30T17:45:47.859Z,21.21
2023-04-30T17:51:23.880Z,21.93
2023-04-30T17:53:50.777Z,21.68
2023-04-30T17:56:17.998Z,21.98
2023-04-30T17:58:45.935Z,21.45
2023-04-30T18:01:13.790Z,21.22
2023-04-30T18:03:40.919Z,20.97
2023-04-30T18:06:07.743Z,21.45
2023-04-30T18:08:34.620Z,21.50
2023-04-30T18:11:03.501Z,21.28
2023-04-30T18:13:31.165Z,21.74
2023-04-30T18:15:57.920Z,21.50
2023-04-30T18:18:24.887Z,21.48
2023-04-30T18:20:51.965Z,21.52
2023-04-30T18:23:19.049Z,21.34
2023-04-30T18:25:46.317Z,21.55
2023-04-30T18:28:13.345Z,21.57
2023-04-30T18:30:40.803Z,20.97
2023-04-30T18:33:08.927Z,21.01
2023-04-30T18:35:36.487Z,21.11
2023-04-30T18:38:03.460Z,21.12
2023-04-30T18:40:31.407Z,21.41
2023-04-30T18:42:59.910Z,21.46
2023-04-30T18:45:26.949Z,21.44
2023-04-30T18:47:59.152Z,21.35
2023-04-30T18:50:29.772Z,21.05
2023-04-30T18:52:59.651Z,21.14
2023-04-30T18:55:26.634Z,21.14
2023-04-30T18:57:58.536Z,20.77
2023-04-30T19:00:27.382Z,21.11
2023-04-30T19:02:54.616Z,21.12
2023-04-30T19:05:21.553Z,21.11
2023-04-30T19:07:48.498Z,21.17
2023-04-30T19:10:15.683Z,21.13
2023-04-30T19:12:44.369Z,20.75
2023-04-30T19:15:15.111Z,21.11
2023-04-30T19:17:42.870Z,21.08
2023-04-30T19:20:10.585Z,20.90
2023-04-30T19:22:38.124Z,21.17
2023-04-30T19:25:08.811Z,20.98
2023-04-30T19:27:36.037Z,21.09
2023-04-30T19:30:03.137Z,21.19
2023-04-30T19:32:30.162Z,21.13
2023-04-30T19:34:59.011Z,20.92
2023-04-30T19:37:35.974Z,20.62
2023-04-30T19:42:55.327Z,20.56
2023-04-30T19:45:22.404Z,20.59
2023-04-30T19:48:04.205Z,20.32
2023-04-30T19:50:43.170Z,20.14
2023-04-30T19:53:16.356Z,20.38
2023-04-30T19:55:44.281Z,20.38
2023-04-30T19:58:11.251Z,20.45
2023-04-30T20:00:41.471Z,20.52
2023-04-30T20:03:09.219Z,20.70
2023-04-30T20:05:36.408Z,20.72
2023-04-30T20:08:04.129Z,20.46
2023-04-30T20:10:32.015Z,20.54
2023-04-30T20:12:58.997Z,20.63
2023-04-30T20:15:26.457Z,20.39
2023-04-30T20:17:53.712Z,20.19
2023-04-30T20:20:23.945Z,20.14
2023-04-30T20:22:53.852Z,20.02
2023-04-30T20:25:22.387Z,20.16
2023-04-30T20:27:49.676Z,20.27
2023-04-30T20:30:16.456Z,20.30
2023-04-30T20:32:43.661Z,20.30
2023-04-30T20:35:10.484Z,20.03
2023-04-30T20:37:37.900Z,20.29
2023-04-30T20:40:08.364Z,19.84
2023-04-30T20:42:35.971Z,19.79
2023-04-30T20:45:05.470Z,19.46
2023-04-30T20:47:32.759Z,19.51
2023-04-30T20:49:59.504Z,19.31
2023-04-30T20:52:33.918Z,19.29
2023-04-30T20:55:07.833Z,19.20
2023-04-30T20:57:34.788Z,19.17
2023-04-30T21:00:01.676Z,19.34
2023-04-30T21:02:28.580Z,18.99
2023-04-30T21:05:03.092Z,19.06
2023-04-30T21:07:32.453Z,19.21
2023-04-30T21:09:59.264Z,19.29
2023-04-30T21:12:27.189Z,18.98
2023-04-30T21:14:58.376Z,19.27
2023-04-30T21:17:25.548Z,19.16
2023-04-30T21:19:52.786Z,19.39
2023-04-30T21:22:19.785Z,19.32
2023-04-30T21:24:50.633Z,19.27
2023-04-30T21:27:17.453Z,19.02
2023-04-30T21:29:44.303Z,18.58
2023-04-30T21:32:23.026Z,19.17
2023-04-30T21:34:50.127Z,19.11
2023-04-30T21:37:20.279Z,19.30
2023-04-30T21:39:47.400Z,18.87
2023-04-30T21:42:14.325Z,19.03
2023-04-30T21:44:41.199Z,18.73
2023-04-30T21:47:10.928Z,19.27
2023-04-30T21:49:37.795Z,18.91
2023-04-30T21:52:08.075Z,19.20
2023-04-30T21:54:37.783Z,19.26
2023-04-30T21:57:04.660Z,19.25
2023-04-30T21:59:34.068Z,19.31
2023-04-30T22:02:13.087Z,19.02
2023-04-30T22:04:49.367Z,18.99
2023-04-30T22:07:16.197Z,19.13
2023-04-30T22:09:44.465Z,19.38
2023-04-30T22:12:11.504Z,19.01
2023-04-30T22:14:38.507Z,19.07
2023-04-30T22:17:05.377Z,19.13
2023-04-30T22:19:32.257Z,19.19
2023-04-30T22:21:59.006Z,19.22
2023-04-30T22:24:25.629Z,19.27
2023-04-30T22:26:52.332Z,19.55
2023-04-30T22:29:19.766Z,18.99
2023-04-30T22:31:46.808Z,19.18
2023-04-30T22:34:15.569Z,19.30
2023-04-30T22:36:42.435Z,19.47
2023-04-30T22:39:10.107Z,19.52
2023-04-30T22:41:36.988Z,19.52
2023-04-30T22:44:05.842Z,19.22
2023-04-30T22:46:36.623Z,19.13
2023-04-30T22:49:03.724Z,19.45
2023-04-30T22:51:31.800Z,19.44
2023-04-30T22:53:58.675Z,19.51
2023-04-30T22:56:25.491Z,19.46
2023-04-30T22:58:52.328Z,19.57
2023-04-30T23:01:20.115Z,19.27
2023-04-30T23:03:46.887Z,19.29
2023-04-30T23:06:14.382Z,19.35
2023-04-30T23:08:41.151Z,19.36
2023-04-30T23:11:07.913Z,19.51
2023-04-30T23:13:34.577Z,19.50
2023-04-30T23:16:02.162Z,19.54
2023-04-30T23:18:28.916Z,19.14
2023-04-30T23:20:58.943Z,19.37
2023-04-30T23:23:26.834Z,19.51
2023-04-30T23:25:54.726Z,19.04
2023-04-30T23:28:22.128Z,19.45
2023-04-30T23:30:55.357Z,18.72
2023-04-30T23:33:22.804Z,19.28
2023-04-30T23:35:49.606Z,19.23
2023-04-30T23:38:16.464Z,19.49
2023-04-30T23:40:43.916Z,19.52
2023-04-30T23:43:11.841Z,19.42
2023-04-30T23:45:42.497Z,19.48
2023-04-30T23:48:10.403Z,19.43
2023-04-30T23:50:40.131Z,19.08
2023-04-30T23:53:07.741Z,19.33
2023-04-30T23:55:35.021Z,18.98
2023-04-30T23:58:01.818Z,19.24
